createdAt,value
2018-09-22T00:00:41.166Z,84.24
2018-09-22T00:03:09.516Z,84.58
2018-09-22T00:05:37.873Z,84.15
2018-09-22T00:08:06.212Z,83.97
2018-09-22T00:10:34.556Z,83.96
2018-09-22T00:13:02.912Z,83.81
2018-09-22T00:15:31.240Z,84.49
2018-09-22T00:17:59.637Z,84.71
2018-09-22T00:20:28.077Z,84.33
2018-09-22T00:22:56.408Z,83.57
2018-09-22T00:25:24.776Z,84.65
2018-09-22T00:27:53.074Z,84.71
2018-09-22T00:30:21.454Z,84.79
2018-09-22T00:32:49.812Z,84.26
2018-09-22T00:35:18.139Z,84.74
2018-09-22T00:37:46.538Z,85.16
2018-09-22T00:40:14.875Z,84.44
2018-09-22T00:42:43.289Z,84.70
2018-09-22T00:45:11.629Z,84.16
2018-09-22T00:47:39.939Z,84.92
2018-09-22T00:50:08.263Z,84.21
2018-09-22T00:52:36.576Z,84.28
2018-09-22T00:55:05.141Z,84.30
2018-09-22T00:57:33.468Z,83.99
2018-09-22T01:00:01.822Z,84.22
2018-09-22T01:02:31.478Z,84.64
2018-09-22T01:04:59.847Z,84.76
2018-09-22T01:07:28.187Z,84.62
2018-09-22T01:09:56.516Z,83.85
2018-09-22T01:12:24.985Z,83.61
2018-09-22T01:14:53.319Z,83.70
2018-09-22T01:17:21.654Z,83.54
2018-09-22T01:19:49.982Z,83.31
2018-09-22T01:22:18.424Z,83.63
2018-09-22T01:24:46.751Z,83.36
2018-09-22T01:27:15.108Z,83.70
2018-09-22T01:29:43.471Z,82.84
2018-09-22T01:32:11.796Z,82.87
2018-09-22T01:34:40.117Z,83.09
2018-09-22T01:37:08.467Z,84.04
2018-09-22T01:39:36.800Z,83.16
2018-09-22T01:42:05.167Z,83.34
2018-09-22T01:44:34.451Z,82.82
2018-09-22T01:47:02.807Z,83.48
2018-09-22T01:49:31.966Z,83.38
2018-09-22T01:52:00.401Z,83.89
2018-09-22T01:54:28.717Z,83.92
2018-09-22T01:56:57.055Z,83.36
2018-09-22T01:59:26.112Z,84.23
2018-09-22T02:01:54.475Z,84.35
2018-09-22T02:04:22.819Z,84.12
2018-09-22T02:06:51.143Z,83.77
2018-09-22T02:09:19.492Z,84.12
2018-09-22T02:11:47.833Z,84.32
2018-09-22T02:14:16.153Z,84.35
2018-09-22T02:16:44.457Z,84.75
2018-09-22T02:19:12.815Z,84.49
2018-09-22T02:21:41.288Z,84.57
2018-09-22T02:24:09.644Z,84.83
2018-09-22T02:26:37.995Z,84.36
2018-09-22T02:29:06.497Z,84.54
2018-09-22T02:31:34.920Z,84.91
2018-09-22T02:34:03.301Z,85.13
2018-09-22T02:36:31.640Z,85.03
2018-09-22T02:38:59.972Z,85.01
2018-09-22T02:41:28.335Z,84.63
2018-09-22T02:43:56.744Z,84.83
2018-09-22T02:46:25.062Z,84.69
2018-09-22T02:48:53.380Z,84.78
2018-09-22T02:51:21.736Z,84.73
2018-09-22T02:53:50.148Z,84.82
2018-09-22T02:56:18.462Z,84.85
2018-09-22T02:58:46.791Z,85.33
2018-09-22T03:01:15.116Z,84.57
2018-09-22T03:03:43.441Z,84.82
2018-09-22T03:06:11.776Z,85.04
2018-09-22T03:08:40.126Z,84.85
2018-09-22T03:11:08.499Z,84.30
2018-09-22T03:13:36.834Z,85.08
2018-09-22T03:16:05.166Z,85.18
2018-09-22T03:18:33.516Z,84.91
2018-09-22T03:21:03.261Z,84.71
2018-09-22T03:23:31.684Z,84.25
2018-09-22T03:26:00.000Z,83.80
2018-09-22T03:28:28.352Z,83.92
2018-09-22T03:30:56.837Z,83.95
2018-09-22T03:33:25.222Z,83.95
2018-09-22T03:35:53.528Z,84.15
2018-09-22T03:38:21.993Z,83.66
2018-09-22T03:40:50.269Z,84.13
2018-09-22T03:43:18.654Z,83.30
2018-09-22T03:45:46.981Z,83.53
2018-09-22T03:48:15.333Z,83.83
2018-09-22T03:50:43.660Z,83.77
2018-09-22T03:53:12.129Z,83.80
2018-09-22T03:55:40.530Z,83.44
2018-09-22T03:58:08.884Z,83.29
2018-09-22T04:00:37.226Z,83.49
2018-09-22T04:03:05.897Z,83.08
2018-09-22T04:05:34.227Z,83.29
2018-09-22T04:08:02.624Z,83.33
2018-09-22T04:10:30.976Z,83.41
2018-09-22T04:12:59.310Z,82.80
2018-09-22T04:15:27.696Z,83.45
2018-09-22T04:17:56.272Z,83.44
2018-09-22T04:20:24.612Z,82.82
2018-09-22T04:22:53.872Z,83.28
2018-09-22T04:25:22.204Z,82.99
2018-09-22T04:27:50.565Z,83.23
2018-09-22T04:30:19.255Z,82.96
2018-09-22T04:32:47.632Z,82.75
2018-09-22T04:35:15.953Z,83.29
2018-09-22T04:37:50.801Z,82.39
2018-09-22T04:40:19.121Z,82.44
2018-09-22T04:42:47.471Z,83.31
2018-09-22T04:45:15.851Z,83.01
2018-09-22T04:47:44.201Z,83.01
2018-09-22T04:50:12.530Z,82.99
2018-09-22T04:52:40.884Z,82.82
2018-09-22T04:55:09.241Z,82.47
2018-09-22T04:57:37.597Z,82.62
2018-09-22T05:00:06.059Z,82.65
2018-09-22T05:02:34.392Z,82.32
2018-09-22T05:06:27.175Z,82.46
2018-09-22T05:08:55.820Z,82.57
2018-09-22T05:11:24.200Z,82.25
2018-09-22T05:13:52.536Z,82.37
2018-09-22T05:16:20.847Z,81.96
2018-09-22T05:18:49.256Z,82.05
2018-09-22T05:21:17.636Z,82.01
2018-09-22T05:23:45.967Z,81.84
2018-09-22T05:26:14.295Z,81.72
2018-09-22T05:28:42.723Z,81.88
2018-09-22T05:31:11.118Z,81.67
2018-09-22T05:33:39.467Z,81.68
2018-09-22T05:36:07.840Z,82.27
2018-09-22T05:38:36.156Z,81.73
2018-09-22T05:41:04.514Z,81.73
2018-09-22T05:43:32.829Z,81.01
2018-09-22T05:46:01.156Z,81.41
2018-09-22T05:48:29.491Z,80.79
2018-09-22T05:50:57.809Z,81.33
2018-09-22T05:53:26.161Z,81.26
2018-09-22T05:55:54.564Z,80.90
2018-09-22T05:58:23.002Z,80.34
2018-09-22T06:00:51.386Z,80.18
2018-09-22T06:03:19.816Z,80.45
2018-09-22T06:05:48.116Z,80.20
2018-09-22T06:08:16.482Z,79.80
2018-09-22T06:10:44.843Z,80.06
2018-09-22T06:13:13.254Z,80.20
2018-09-22T06:15:41.668Z,78.93
2018-09-22T06:18:10.046Z,78.91
2018-09-22T06:20:44.745Z,79.08
2018-09-22T06:23:13.257Z,79.58
2018-09-22T06:25:41.577Z,79.43
2018-09-22T06:28:09.932Z,78.85
2018-09-22T06:30:38.297Z,78.76
2018-09-22T06:33:06.704Z,78.08
2018-09-22T06:35:35.156Z,78.46
2018-09-22T06:38:03.557Z,77.58
2018-09-22T06:40:31.925Z,77.60
2018-09-22T06:43:00.227Z,77.21
2018-09-22T06:45:28.641Z,77.54
2018-09-22T06:47:56.978Z,76.97
2018-09-22T06:50:25.369Z,77.13
2018-09-22T06:52:53.728Z,77.20
2018-09-22T06:55:22.139Z,77.11
2018-09-22T06:57:50.504Z,77.39
2018-09-22T07:00:18.853Z,76.39
2018-09-22T07:02:47.241Z,76.11
2018-09-22T07:05:15.637Z,75.20
2018-09-22T07:07:44.108Z,75.63
2018-09-22T07:10:12.589Z,74.36
2018-09-22T07:12:40.962Z,74.20
2018-09-22T07:15:09.314Z,74.95
2018-09-22T07:17:37.687Z,73.95
2018-09-22T07:20:06.114Z,73.19
2018-09-22T07:22:39.792Z,73.13
2018-09-22T07:25:09.070Z,73.05
2018-09-22T07:27:37.432Z,73.94
2018-09-22T07:30:05.778Z,73.40
2018-09-22T07:32:34.155Z,73.25
2018-09-22T07:35:02.521Z,72.96
2018-09-22T07:37:30.893Z,71.83
2018-09-22T07:39:59.270Z,72.46
2018-09-22T07:42:27.634Z,72.59
2018-09-22T07:44:56.032Z,72.95
2018-09-22T07:47:24.391Z,72.48
2018-09-22T07:49:52.769Z,72.83
2018-09-22T07:52:21.127Z,72.00
2018-09-22T07:54:49.543Z,72.02
2018-09-22T07:57:19.119Z,72.04
2018-09-22T07:59:47.474Z,71.62
2018-09-22T08:02:15.880Z,70.34
2018-09-22T08:04:44.234Z,70.10
2018-09-22T08:07:12.615Z,70.00
2018-09-22T08:09:41.005Z,70.71
2018-09-22T08:12:09.373Z,69.24
2018-09-22T08:14:37.843Z,69.48
2018-09-22T08:17:06.241Z,69.22
2018-09-22T08:19:34.624Z,69.90
2018-09-22T08:22:03.037Z,69.51
2018-09-22T08:24:31.480Z,69.19
2018-09-22T08:26:59.911Z,69.26
2018-09-22T08:29:28.269Z,68.25
2018-09-22T08:31:56.669Z,68.30
2018-09-22T08:34:25.341Z,68.98
2018-09-22T08:36:53.904Z,69.16
2018-09-22T08:39:22.079Z,67.93
2018-09-22T08:41:50.497Z,68.30
2018-09-22T08:44:18.850Z,68.96
2018-09-22T08:46:47.268Z,69.43
2018-09-22T08:49:15.633Z,68.90
2018-09-22T08:51:44.033Z,69.33
2018-09-22T08:54:12.397Z,68.88
2018-09-22T08:56:40.752Z,68.26
2018-09-22T08:59:09.693Z,68.83
2018-09-22T09:01:38.082Z,68.42
2018-09-22T09:04:07.176Z,69.00
2018-09-22T09:06:35.570Z,68.18
2018-09-22T09:09:05.427Z,66.90
2018-09-22T09:11:33.850Z,66.79
2018-09-22T09:14:02.242Z,66.43
2018-09-22T09:16:30.559Z,65.81
2018-09-22T09:18:58.991Z,63.98
2018-09-22T09:21:27.377Z,64.29
2018-09-22T09:23:55.785Z,63.85
2018-09-22T09:26:24.240Z,64.40
2018-09-22T09:28:52.632Z,63.75
2018-09-22T09:31:21.284Z,63.25
2018-09-22T09:33:50.389Z,62.69
2018-09-22T09:36:19.035Z,62.71
2018-09-22T09:38:47.379Z,61.49
2018-09-22T09:41:16.427Z,61.57
2018-09-22T09:43:45.695Z,60.84
2018-09-22T09:46:14.156Z,60.56
2018-09-22T09:48:42.529Z,59.71
2018-09-22T09:51:10.997Z,57.95
2018-09-22T09:53:39.340Z,57.53
2018-09-22T09:56:07.725Z,57.04
2018-09-22T09:58:36.091Z,57.00
2018-09-22T10:01:04.502Z,56.05
2018-09-22T10:03:32.975Z,55.35
2018-09-22T10:06:01.349Z,55.55
2018-09-22T10:08:29.739Z,55.63
2018-09-22T10:10:58.717Z,54.58
2018-09-22T10:13:27.228Z,54.23
2018-09-22T10:15:55.629Z,55.58
2018-09-22T10:18:24.035Z,53.74
2018-09-22T10:20:52.419Z,54.12
2018-09-22T10:23:20.784Z,55.06
2018-09-22T10:25:49.159Z,55.22
2018-09-22T10:28:17.495Z,54.96
2018-09-22T10:30:45.862Z,54.80
2018-09-22T10:33:28.127Z,54.54
2018-09-22T10:35:56.538Z,55.40
2018-09-22T10:38:24.880Z,55.47
2018-09-22T10:40:53.347Z,54.30
2018-09-22T10:43:21.698Z,52.94
2018-09-22T10:45:50.102Z,51.37
2018-09-22T10:48:25.171Z,51.74
2018-09-22T10:50:53.593Z,51.12
2018-09-22T10:53:22.835Z,50.92
2018-09-22T10:55:51.212Z,51.32
2018-09-22T10:58:19.532Z,51.42
2018-09-22T11:00:47.880Z,50.11
2018-09-22T11:03:16.221Z,50.26
2018-09-22T11:05:44.595Z,50.02
2018-09-22T11:08:12.996Z,50.11
2018-09-22T11:10:41.374Z,49.94
2018-09-22T11:13:09.841Z,48.25
2018-09-22T11:15:38.189Z,47.95
2018-09-22T11:18:06.907Z,48.46
2018-09-22T11:20:35.867Z,48.57
2018-09-22T11:23:04.245Z,48.62
2018-09-22T11:25:32.618Z,47.94
2018-09-22T11:28:00.991Z,48.01
2018-09-22T11:30:29.435Z,47.10
2018-09-22T11:32:57.828Z,47.56
2018-09-22T11:35:26.209Z,48.60
2018-09-22T11:37:54.625Z,48.71
2018-09-22T11:40:22.989Z,48.47
2018-09-22T11:42:51.518Z,47.16
2018-09-22T11:45:19.880Z,47.06
2018-09-22T11:47:48.435Z,46.75
2018-09-22T11:50:16.772Z,47.33
2018-09-22T11:52:45.325Z,47.79
2018-09-22T11:55:14.292Z,46.27
2018-09-22T11:57:42.640Z,46.59
2018-09-22T12:00:10.998Z,46.43
2018-09-22T12:02:40.481Z,47.71
2018-09-22T12:05:08.887Z,47.49
2018-09-22T12:07:37.240Z,46.47
2018-09-22T12:10:05.727Z,45.63
2018-09-22T12:12:34.113Z,48.14
2018-09-22T12:15:02.568Z,47.69
2018-09-22T12:17:30.948Z,47.93
2018-09-22T12:19:59.626Z,48.09
2018-09-22T12:22:28.023Z,48.75
2018-09-22T12:24:56.378Z,49.21
2018-09-22T12:27:24.735Z,47.85
2018-09-22T12:29:53.090Z,47.86
2018-09-22T12:32:21.445Z,48.01
2018-09-22T12:34:49.854Z,46.52
2018-09-22T12:37:18.171Z,46.71
2018-09-22T12:39:46.581Z,47.33
2018-09-22T12:42:14.997Z,47.12
2018-09-22T12:44:43.375Z,47.73
2018-09-22T12:47:11.821Z,47.49
2018-09-22T12:49:40.171Z,48.40
2018-09-22T12:52:08.593Z,48.97
2018-09-22T12:54:36.999Z,48.08
2018-09-22T12:57:05.356Z,47.79
2018-09-22T12:59:33.769Z,48.80
2018-09-22T13:02:02.183Z,48.31
2018-09-22T13:04:30.593Z,48.09
2018-09-22T13:06:58.931Z,49.07
2018-09-22T13:09:27.673Z,49.34
2018-09-22T13:11:56.081Z,48.86
2018-09-22T13:14:24.444Z,48.84
2018-09-22T13:16:52.906Z,49.27
2018-09-22T13:19:21.426Z,49.82
2018-09-22T13:21:49.798Z,49.80
2018-09-22T13:24:18.197Z,50.92
2018-09-22T13:26:46.705Z,50.65
2018-09-22T13:29:15.057Z,50.64
2018-09-22T13:31:43.429Z,51.22
2018-09-22T13:34:11.873Z,51.46
2018-09-22T13:36:40.290Z,51.42
2018-09-22T13:39:10.207Z,52.14
2018-09-22T13:41:38.557Z,52.03
2018-09-22T13:44:06.945Z,52.29
2018-09-22T13:46:35.290Z,51.58
2018-09-22T13:49:03.733Z,51.87
2018-09-22T13:51:32.078Z,52.06
2018-09-22T13:54:00.415Z,52.02
2018-09-22T13:56:28.765Z,51.32
2018-09-22T13:58:57.440Z,51.44
2018-09-22T14:01:25.840Z,51.21
2018-09-22T14:03:54.763Z,51.60
2018-09-22T14:06:23.152Z,52.28
2018-09-22T14:08:51.568Z,51.21
2018-09-22T14:11:19.939Z,51.38
2018-09-22T14:13:48.286Z,52.43
2018-09-22T14:16:18.122Z,52.52
2018-09-22T14:18:46.806Z,52.50
2018-09-22T14:21:15.218Z,52.59
2018-09-22T14:23:43.517Z,52.62
2018-09-22T14:26:11.900Z,53.97
2018-09-22T14:28:40.313Z,54.09
2018-09-22T14:31:08.703Z,54.47
2018-09-22T14:33:37.320Z,54.30
2018-09-22T14:36:05.668Z,55.47
2018-09-22T14:38:34.050Z,56.01
2018-09-22T14:41:02.425Z,56.95
2018-09-22T14:43:30.804Z,56.99
2018-09-22T14:46:00.185Z,56.84
2018-09-22T14:48:28.586Z,56.04
2018-09-22T14:50:56.959Z,57.80
2018-09-22T14:53:25.326Z,59.88
2018-09-22T14:55:53.756Z,61.66
2018-09-22T14:58:22.125Z,63.00
2018-09-22T15:00:50.506Z,64.18
2018-09-22T15:03:18.905Z,65.61
2018-09-22T15:05:47.259Z,67.97
2018-09-22T15:08:15.660Z,69.67
2018-09-22T15:10:44.183Z,70.40
2018-09-22T15:13:12.574Z,72.18
2018-09-22T15:15:40.958Z,72.06
2018-09-22T15:18:09.333Z,72.70
2018-09-22T15:20:37.718Z,74.03
2018-09-22T15:23:06.180Z,74.49
2018-09-22T15:25:34.525Z,74.21
2018-09-22T15:28:02.896Z,75.25
2018-09-22T15:30:31.354Z,76.15
2018-09-22T15:32:59.690Z,76.33
2018-09-22T15:35:28.069Z,76.79
2018-09-22T15:37:56.428Z,77.41
2018-09-22T15:40:24.814Z,77.35
2018-09-22T15:42:53.426Z,77.40
2018-09-22T15:45:21.855Z,77.50
2018-09-22T15:47:50.210Z,77.41
2018-09-22T15:50:18.674Z,77.22
2018-09-22T15:52:47.023Z,78.00
2018-09-22T15:55:15.426Z,78.94
2018-09-22T15:57:43.789Z,78.82
2018-09-22T16:00:12.175Z,79.58
2018-09-22T16:02:40.871Z,79.20
2018-09-22T16:05:09.212Z,78.33
2018-09-22T16:07:37.588Z,78.14
2018-09-22T16:10:06.232Z,79.13
2018-09-22T16:12:36.103Z,78.31
2018-09-22T16:15:04.596Z,78.15
2018-09-22T16:17:33.006Z,78.55
2018-09-22T16:20:01.529Z,77.90
2018-09-22T16:22:29.879Z,78.34
2018-09-22T16:24:58.211Z,77.56
2018-09-22T16:27:27.330Z,78.50
2018-09-22T16:29:55.647Z,78.80
2018-09-22T16:32:24.102Z,78.93
2018-09-22T16:34:52.427Z,79.27
2018-09-22T16:37:20.825Z,79.38
2018-09-22T16:39:49.221Z,79.34
2018-09-22T16:42:17.610Z,80.03
2018-09-22T16:44:45.985Z,80.08
2018-09-22T16:47:14.450Z,79.79
2018-09-22T16:49:42.811Z,80.26
2018-09-22T16:52:11.145Z,79.64
2018-09-22T16:54:39.492Z,80.16
2018-09-22T16:57:07.831Z,80.33
2018-09-22T16:59:36.240Z,80.28
2018-09-22T17:02:04.607Z,80.34
2018-09-22T17:04:33.000Z,80.50
2018-09-22T17:07:01.333Z,80.77
2018-09-22T17:09:29.801Z,81.23
2018-09-22T17:11:58.136Z,81.13
2018-09-22T17:14:26.493Z,81.11
2018-09-22T17:16:54.869Z,80.04
2018-09-22T17:19:23.243Z,80.51
2018-09-22T17:21:51.590Z,81.51
2018-09-22T17:24:20.005Z,81.34
2018-09-22T17:26:48.405Z,81.77
2018-09-22T17:29:16.772Z,82.57
2018-09-22T17:31:45.128Z,83.49
2018-09-22T17:34:13.484Z,83.57
2018-09-22T17:36:41.841Z,84.53
2018-09-22T17:39:10.964Z,84.40
2018-09-22T17:41:39.313Z,84.04
2018-09-22T17:44:07.654Z,84.73
2018-09-22T17:46:36.061Z,85.04
2018-09-22T17:49:04.437Z,85.04
2018-09-22T17:51:32.811Z,85.54
2018-09-22T17:54:01.120Z,85.20
2018-09-22T17:56:29.548Z,85.38
2018-09-22T17:58:57.919Z,85.27
2018-09-22T18:01:26.425Z,84.66
2018-09-22T18:03:54.787Z,84.39
2018-09-22T18:06:23.190Z,85.03
2018-09-22T18:08:51.560Z,84.57
2018-09-22T18:11:19.920Z,84.95
2018-09-22T18:13:48.267Z,84.80
2018-09-22T18:16:16.615Z,84.87
2018-09-22T18:18:45.202Z,84.93
2018-09-22T18:21:13.543Z,85.77
2018-09-22T18:23:41.885Z,85.46
2018-09-22T18:26:10.257Z,85.13
2018-09-22T18:28:38.778Z,85.98
2018-09-22T18:31:07.224Z,85.72
2018-09-22T18:33:35.627Z,85.68
2018-09-22T18:36:03.981Z,85.53
2018-09-22T18:38:32.368Z,85.39
2018-09-22T18:41:00.722Z,85.95
2018-09-22T18:43:29.153Z,85.72
2018-09-22T18:45:57.493Z,85.84
2018-09-22T18:48:25.883Z,85.19
2018-09-22T18:50:54.227Z,85.60
2018-09-22T18:53:22.612Z,85.82
2018-09-22T18:55:51.155Z,85.59
2018-09-22T18:58:19.533Z,85.39
2018-09-22T19:00:47.869Z,85.44
2018-09-22T19:03:16.241Z,85.77
2018-09-22T19:05:44.628Z,86.22
2018-09-22T19:08:12.959Z,85.71
2018-09-22T19:10:41.347Z,85.70
2018-09-22T19:13:11.576Z,85.26
2018-09-22T19:15:50.006Z,86.18
2018-09-22T19:18:21.757Z,86.02
2018-09-22T19:20:55.389Z,86.29
2018-09-22T19:23:28.370Z,85.75
2018-09-22T19:26:00.468Z,85.79
2018-09-22T19:28:34.029Z,86.83
2018-09-22T19:31:06.106Z,86.59
2018-09-22T19:33:45.501Z,86.90
2018-09-22T19:36:31.768Z,86.80
2018-09-22T19:39:11.963Z,87.02
2018-09-22T19:41:50.235Z,86.36
2018-09-22T19:44:21.651Z,86.21
2018-09-22T19:46:53.920Z,86.51
2018-09-22T19:49:25.994Z,86.80
2018-09-22T19:51:58.976Z,87.02
2018-09-22T19:54:27.369Z,86.85
2018-09-22T19:56:55.754Z,86.52
2018-09-22T19:59:24.149Z,87.30
2018-09-22T20:01:52.670Z,87.00
2018-09-22T20:04:21.047Z,86.74
2018-09-22T20:06:49.400Z,87.26
2018-09-22T20:09:18.148Z,87.21
2018-09-22T20:11:46.524Z,87.34
2018-09-22T20:14:14.929Z,87.17
2018-09-22T20:16:43.321Z,87.46
2018-09-22T20:19:11.698Z,87.36
2018-09-22T20:21:40.101Z,87.26
2018-09-22T20:24:08.454Z,87.38
2018-09-22T20:26:36.838Z,87.41
2018-09-22T20:29:05.196Z,86.92
2018-09-22T20:31:33.601Z,87.37
2018-09-22T20:34:02.320Z,87.89
2018-09-22T20:36:33.617Z,87.87
2018-09-22T20:39:02.013Z,87.06
2018-09-22T20:41:30.379Z,87.51
2018-09-22T20:43:58.795Z,87.10
2018-09-22T20:46:27.167Z,88.00
2018-09-22T20:48:55.477Z,87.63
2018-09-22T20:51:23.828Z,87.50
2018-09-22T20:53:52.310Z,87.30
2018-09-22T20:56:20.575Z,87.17
2018-09-22T20:58:48.968Z,87.42
2018-09-22T21:01:17.516Z,87.43
2018-09-22T21:03:45.881Z,87.27
2018-09-22T21:06:14.235Z,87.65
2018-09-22T21:08:42.607Z,87.64
2018-09-22T21:11:10.987Z,87.77
2018-09-22T21:13:39.408Z,87.90
2018-09-22T21:16:07.788Z,87.85
2018-09-22T21:18:36.251Z,87.88
2018-09-22T21:21:04.754Z,87.90
2018-09-22T21:23:33.142Z,87.43
2018-09-22T21:26:01.516Z,87.98
2018-09-22T21:28:29.875Z,88.02
2018-09-22T21:30:58.392Z,87.91
2018-09-22T21:33:26.735Z,87.95
2018-09-22T21:35:55.070Z,88.11
2018-09-22T21:38:23.438Z,87.79
2018-09-22T21:40:51.836Z,88.38
2018-09-22T21:43:20.396Z,88.39
2018-09-22T21:45:49.122Z,88.56
2018-09-22T21:48:17.533Z,88.62
2018-09-22T21:50:45.874Z,88.25
2018-09-22T21:53:14.236Z,88.38
2018-09-22T21:55:42.612Z,88.59
2018-09-22T21:58:11.010Z,88.50
2018-09-22T22:00:39.399Z,88.90
2018-09-22T22:03:07.781Z,88.53
2018-09-22T22:05:36.568Z,89.06
2018-09-22T22:08:04.899Z,88.53
2018-09-22T22:10:33.277Z,88.86
2018-09-22T22:13:01.700Z,89.15
2018-09-22T22:15:30.073Z,88.27
2018-09-22T22:17:58.419Z,88.98
2018-09-22T22:20:26.802Z,88.86
2018-09-22T22:22:55.166Z,88.44
2018-09-22T22:25:23.548Z,88.44
2018-09-22T22:27:51.902Z,89.09
2018-09-22T22:30:20.281Z,88.94
2018-09-22T22:32:48.635Z,88.98
2018-09-22T22:35:17.046Z,89.20
2018-09-22T22:37:45.408Z,89.33
2018-09-22T22:40:13.754Z,89.05
2018-09-22T22:42:42.109Z,88.99
2018-09-22T22:45:10.619Z,89.49
2018-09-22T22:47:39.001Z,89.40
2018-09-22T22:50:07.457Z,88.74
2018-09-22T22:52:35.824Z,88.65
2018-09-22T22:55:04.149Z,89.20
2018-09-22T22:57:32.504Z,89.30
2018-09-22T23:00:00.923Z,88.85
2018-09-22T23:02:29.274Z,88.69
2018-09-22T23:04:57.710Z,88.89
2018-09-22T23:07:26.056Z,88.51
2018-09-22T23:09:54.523Z,89.05
2018-09-22T23:12:22.864Z,88.88
2018-09-22T23:14:51.259Z,88.85
2018-09-22T23:17:19.629Z,89.16
2018-09-22T23:19:48.265Z,88.52
2018-09-22T23:22:16.795Z,88.82
2018-09-22T23:24:45.151Z,88.60
2018-09-22T23:27:13.501Z,89.06
2018-09-22T23:29:41.878Z,89.18
2018-09-22T23:32:10.270Z,89.14
2018-09-22T23:34:38.687Z,88.61
2018-09-22T23:37:07.063Z,88.27
2018-09-22T23:39:35.415Z,88.43
2018-09-22T23:42:03.787Z,88.58
2018-09-22T23:44:32.208Z,88.62
2018-09-22T23:47:00.577Z,88.17
2018-09-22T23:49:28.957Z,88.54
2018-09-22T23:51:57.351Z,88.50
2018-09-22T23:54:25.745Z,88.46
2018-09-22T23:56:54.101Z,89.09
2018-09-22T23:59:22.671Z,88.39
